sensor_id;sensor_type;location;lat;lon;timestamp;pressure;altitude;pressure_sealevel;temperature;humidity
18749;BME280;9503;53.560;10.246;2022-09-19T00:01:40;100338.84;;;10.78;100.00
18749;BME280;9503;53.560;10.246;2022-09-19T00:04:10;100345.56;;;10.75;100.00
18749;BME280;9503;53.560;10.246;2022-09-19T00:06:38;100348.06;;;10.73;100.00
18749;BME280;9503;53.560;10.246;2022-09-19T00:09:07;100348.69;;;10.68;100.00
18749;BME280;9503;53.560;10.246;2022-09-19T00:11:38;100347.34;;;10.57;100.00
18749;BME280;9503;53.560;10.246;2022-09-19T00:14:05;100357.69;;;10.58;100.00
18749;BME280;9503;53.560;10.246;2022-09-19T00:16:33;100365.13;;;10.52;100.00
18749;BME280;9503;53.560;10.246;2022-09-19T00:19:03;100365.13;;;10.52;100.00
18749;BME280;9503;53.560;10.246;2022-09-19T00:21:31;100364.03;;;10.47;100.00
18749;BME280;9503;53.560;10.246;2022-09-19T00:23:59;100366.72;;;10.29;100.00
18749;BME280;9503;53.560;10.246;2022-09-19T00:26:43;100365.34;;;10.37;100.00
18749;BME280;9503;53.560;10.246;2022-09-19T00:29:12;100365.28;;;10.36;100.00
18749;BME280;9503;53.560;10.246;2022-09-19T00:31:39;100369.50;;;10.16;100.00
18749;BME280;9503;53.560;10.246;2022-09-19T00:34:07;100367.13;;;10.20;100.00
18749;BME280;9503;53.560;10.246;2022-09-19T00:36:35;100376.97;;;10.29;100.00
18749;BME280;9503;53.560;10.246;2022-09-19T00:39:02;100379.63;;;10.32;100.00
18749;BME280;9503;53.560;10.246;2022-09-19T00:41:30;100375.59;;;10.37;100.00
18749;BME280;9503;53.560;10.246;2022-09-19T00:43:58;100372.16;;;10.37;100.00
18749;BME280;9503;53.560;10.246;2022-09-19T00:46:27;100382.13;;;10.31;100.00
18749;BME280;9503;53.560;10.246;2022-09-19T00:48:56;100377.88;;;10.31;100.00
18749;BME280;9503;53.560;10.246;2022-09-19T00:51:29;100381.25;;;10.30;100.00
18749;BME280;9503;53.560;10.246;2022-09-19T00:53:58;100378.56;;;10.27;100.00
18749;BME280;9503;53.560;10.246;2022-09-19T00:56:26;100381.00;;;10.24;100.00
18749;BME280;9503;53.560;10.246;2022-09-19T00:58:54;100381.00;;;10.24;100.00
18749;BME280;9503;53.560;10.246;2022-09-19T01:01:23;100388.38;;;10.18;100.00
18749;BME280;9503;53.560;10.246;2022-09-19T01:03:50;100385.53;;;10.12;100.00
18749;BME280;9503;53.560;10.246;2022-09-19T01:06:29;100392.41;;;10.13;100.00
18749;BME280;9503;53.560;10.246;2022-09-19T01:09:11;100394.63;;;10.05;100.00
18749;BME280;9503;53.560;10.246;2022-09-19T01:12:04;100394.78;;;10.08;100.00
18749;BME280;9503;53.560;10.246;2022-09-19T01:14:57;100393.34;;;9.95;100.00
18749;BME280;9503;53.560;10.246;2022-09-19T01:17:32;100402.25;;;9.84;100.00
18749;BME280;9503;53.560;10.246;2022-09-19T01:20:17;100410.88;;;9.86;100.00
18749;BME280;9503;53.560;10.246;2022-09-19T01:22:59;100408.44;;;9.89;100.00
18749;BME280;9503;53.560;10.246;2022-09-19T01:25:35;100408.66;;;9.76;100.00
18749;BME280;9503;53.560;10.246;2022-09-19T01:28:15;100409.66;;;9.78;100.00
18749;BME280;9503;53.560;10.246;2022-09-19T01:30:51;100418.25;;;9.80;100.00
18749;BME280;9503;53.560;10.246;2022-09-19T01:33:41;100429.66;;;9.69;100.00
18749;BME280;9503;53.560;10.246;2022-09-19T01:36:10;100433.56;;;9.79;100.00
18749;BME280;9503;53.560;10.246;2022-09-19T01:38:41;100435.09;;;9.75;100.00
18749;BME280;9503;53.560;10.246;2022-09-19T01:41:11;100443.00;;;9.80;100.00
18749;BME280;9503;53.560;10.246;2022-09-19T01:43:39;100441.88;;;9.75;100.00
18749;BME280;9503;53.560;10.246;2022-09-19T01:46:09;100438.97;;;9.85;100.00
18749;BME280;9503;53.560;10.246;2022-09-19T01:48:45;100443.13;;;9.83;100.00
18749;BME280;9503;53.560;10.246;2022-09-19T01:51:23;100446.13;;;9.74;100.00
18749;BME280;9503;53.560;10.246;2022-09-19T01:54:01;100438.44;;;9.74;100.00
18749;BME280;9503;53.560;10.246;2022-09-19T01:56:40;100442.59;;;9.90;100.00
18749;BME280;9503;53.560;10.246;2022-09-19T01:59:20;100449.13;;;9.83;100.00
18749;BME280;9503;53.560;10.246;2022-09-19T02:01:55;100454.03;;;9.79;100.00
18749;BME280;9503;53.560;10.246;2022-09-19T02:04:30;100455.84;;;9.81;100.00
18749;BME280;9503;53.560;10.246;2022-09-19T02:07:02;100460.22;;;9.84;100.00
18749;BME280;9503;53.560;10.246;2022-09-19T02:09:38;100464.13;;;9.76;100.00
18749;BME280;9503;53.560;10.246;2022-09-19T02:12:10;100460.97;;;9.81;100.00
18749;BME280;9503;53.560;10.246;2022-09-19T02:14:41;100471.28;;;9.83;100.00
18749;BME280;9503;53.560;10.246;2022-09-19T02:17:14;100464.94;;;9.75;100.00
18749;BME280;9503;53.560;10.246;2022-09-19T02:19:45;100462.72;;;9.82;100.00
18749;BME280;9503;53.560;10.246;2022-09-19T02:22:18;100468.44;;;9.77;100.00
18749;BME280;9503;53.560;10.246;2022-09-19T02:24:49;100468.44;;;9.77;100.00
18749;BME280;9503;53.560;10.246;2022-09-19T02:27:23;100467.56;;;9.76;100.00
18749;BME280;9503;53.560;10.246;2022-09-19T02:29:54;100471.81;;;9.76;100.00
18749;BME280;9503;53.560;10.246;2022-09-19T02:32:23;100470.78;;;9.72;100.00
18749;BME280;9503;53.560;10.246;2022-09-19T02:34:52;100478.31;;;9.69;100.00
18749;BME280;9503;53.560;10.246;2022-09-19T02:37:25;100486.13;;;9.54;100.00
18749;BME280;9503;53.560;10.246;2022-09-19T02:39:59;100488.63;;;9.53;100.00
18749;BME280;9503;53.560;10.246;2022-09-19T02:42:35;100494.41;;;9.49;100.00
18749;BME280;9503;53.560;10.246;2022-09-19T02:45:12;100492.81;;;9.51;100.00
18749;BME280;9503;53.560;10.246;2022-09-19T02:47:49;100495.88;;;9.44;100.00
18749;BME280;9503;53.560;10.246;2022-09-19T02:50:25;100502.22;;;9.34;100.00
18749;BME280;9503;53.560;10.246;2022-09-19T02:52:56;100507.16;;;9.31;100.00
18749;BME280;9503;53.560;10.246;2022-09-19T02:55:27;100503.66;;;9.29;100.00
18749;BME280;9503;53.560;10.246;2022-09-19T02:57:58;100506.16;;;9.27;100.00
18749;BME280;9503;53.560;10.246;2022-09-19T03:00:27;100508.78;;;9.29;100.00
18749;BME280;9503;53.560;10.246;2022-09-19T03:02:58;100509.34;;;9.23;100.00
18749;BME280;9503;53.560;10.246;2022-09-19T03:05:49;100514.41;;;9.22;100.00
18749;BME280;9503;53.560;10.246;2022-09-19T03:08:20;100514.16;;;9.17;100.00
18749;BME280;9503;53.560;10.246;2022-09-19T03:10:51;100526.00;;;9.15;100.00
18749;BME280;9503;53.560;10.246;2022-09-19T03:13:19;100519.75;;;9.10;100.00
18749;BME280;9503;53.560;10.246;2022-09-19T03:15:53;100520.50;;;9.07;100.00
18749;BME280;9503;53.560;10.246;2022-09-19T03:18:24;100528.84;;;9.03;100.00
18749;BME280;9503;53.560;10.246;2022-09-19T03:20:55;100529.59;;;9.02;100.00
18749;BME280;9503;53.560;10.246;2022-09-19T03:23:27;100531.22;;;9.00;100.00
18749;BME280;9503;53.560;10.246;2022-09-19T03:25:56;100538.81;;;8.99;100.00
18749;BME280;9503;53.560;10.246;2022-09-19T03:28:23;100541.31;;;8.97;100.00
18749;BME280;9503;53.560;10.246;2022-09-19T03:30:49;100540.31;;;8.95;100.00
18749;BME280;9503;53.560;10.246;2022-09-19T03:33:17;100537.69;;;8.94;100.00
18749;BME280;9503;53.560;10.246;2022-09-19T03:35:44;100537.47;;;8.89;100.00
18749;BME280;9503;53.560;10.246;2022-09-19T03:38:16;100545.78;;;8.85;100.00
18749;BME280;9503;53.560;10.246;2022-09-19T03:40:43;100542.25;;;8.83;100.00
18749;BME280;9503;53.560;10.246;2022-09-19T03:43:09;100550.16;;;8.88;100.00
18749;BME280;9503;53.560;10.246;2022-09-19T03:45:36;100546.72;;;8.87;100.00
18749;BME280;9503;53.560;10.246;2022-09-19T03:48:03;100546.03;;;8.90;100.00
18749;BME280;9503;53.560;10.246;2022-09-19T03:50:31;100549.19;;;8.85;100.00
18749;BME280;9503;53.560;10.246;2022-09-19T03:52:57;100552.00;;;8.90;100.00
18749;BME280;9503;53.560;10.246;2022-09-19T03:55:24;100554.63;;;8.92;100.00
18749;BME280;9503;53.560;10.246;2022-09-19T03:57:51;100561.66;;;8.96;100.00
18749;BME280;9503;53.560;10.246;2022-09-19T04:00:18;100556.38;;;8.93;100.00
18749;BME280;9503;53.560;10.246;2022-09-19T04:02:46;100559.56;;;8.89;100.00
18749;BME280;9503;53.560;10.246;2022-09-19T04:05:16;100561.19;;;8.86;100.00
18749;BME280;9503;53.560;10.246;2022-09-19T04:07:44;100560.72;;;8.77;100.00
18749;BME280;9503;53.560;10.246;2022-09-19T04:10:13;100565.50;;;8.88;100.00
18749;BME280;9503;53.560;10.246;2022-09-19T04:12:40;100561.34;;;8.90;100.00
18749;BME280;9503;53.560;10.246;2022-09-19T04:15:07;100570.84;;;8.92;100.00
18749;BME280;9503;53.560;10.246;2022-09-19T04:17:34;100567.66;;;8.96;100.00
18749;BME280;9503;53.560;10.246;2022-09-19T04:20:01;100577.16;;;8.99;100.00
18749;BME280;9503;53.560;10.246;2022-09-19T04:22:27;100576.44;;;9.01;100.00
18749;BME280;9503;53.560;10.246;2022-09-19T04:24:55;100579.31;;;9.07;100.00
18749;BME280;9503;53.560;10.246;2022-09-19T04:27:22;100585.47;;;9.11;100.00
18749;BME280;9503;53.560;10.246;2022-09-19T04:29:48;100591.28;;;9.25;100.00
18749;BME280;9503;53.560;10.246;2022-09-19T04:32:16;100595.91;;;9.32;100.00
18749;BME280;9503;53.560;10.246;2022-09-19T04:34:43;100591.34;;;9.43;100.00
18749;BME280;9503;53.560;10.246;2022-09-19T04:37:12;100587.50;;;9.51;100.00
18749;BME280;9503;53.560;10.246;2022-09-19T04:39:40;100593.06;;;9.60;100.00
18749;BME280;9503;53.560;10.246;2022-09-19T04:42:08;100593.06;;;9.60;100.00
18749;BME280;9503;53.560;10.246;2022-09-19T04:44:35;100596.53;;;9.78;100.00
18749;BME280;9503;53.560;10.246;2022-09-19T04:47:01;100595.00;;;9.82;100.00
18749;BME280;9503;53.560;10.246;2022-09-19T04:49:31;100594.91;;;9.80;100.00
18749;BME280;9503;53.560;10.246;2022-09-19T04:52:02;100600.41;;;9.88;100.00
18749;BME280;9503;53.560;10.246;2022-09-19T04:54:28;100601.28;;;9.88;100.00
18749;BME280;9503;53.560;10.246;2022-09-19T04:57:03;100607.72;;;9.98;100.00
18749;BME280;9503;53.560;10.246;2022-09-19T04:59:33;100611.84;;;9.94;100.00
18749;BME280;9503;53.560;10.246;2022-09-19T05:02:00;100614.47;;;9.96;100.00
18749;BME280;9503;53.560;10.246;2022-09-19T05:04:28;100622.31;;;10.17;100.00
18749;BME280;9503;53.560;10.246;2022-09-19T05:06:55;100622.66;;;10.23;100.00
18749;BME280;9503;53.560;10.246;2022-09-19T05:09:21;100625.97;;;10.22;100.00
18749;BME280;9503;53.560;10.246;2022-09-19T05:11:48;100625.75;;;10.35;100.00
18749;BME280;9503;53.560;10.246;2022-09-19T05:14:15;100635.44;;;10.41;100.00
18749;BME280;9503;53.560;10.246;2022-09-19T05:16:44;100629.44;;;10.40;100.00
18749;BME280;9503;53.560;10.246;2022-09-19T05:19:12;100622.84;;;10.45;100.00
18749;BME280;9503;53.560;10.246;2022-09-19T05:21:38;100623.13;;;10.51;100.00
18749;BME280;9503;53.560;10.246;2022-09-19T05:24:05;100628.63;;;10.59;100.00
18749;BME280;9503;53.560;10.246;2022-09-19T05:26:32;100630.16;;;10.56;100.00
18749;BME280;9503;53.560;10.246;2022-09-19T05:28:58;100632.88;;;10.59;100.00
18749;BME280;9503;53.560;10.246;2022-09-19T05:31:25;100635.78;;;10.66;100.00
18749;BME280;9503;53.560;10.246;2022-09-19T05:33:53;100645.28;;;10.69;100.00
18749;BME280;9503;53.560;10.246;2022-09-19T05:36:19;100641.38;;;10.58;100.00
18749;BME280;9503;53.560;10.246;2022-09-19T05:38:46;100647.09;;;10.71;100.00
18749;BME280;9503;53.560;10.246;2022-09-19T05:41:13;100643.16;;;10.78;100.00
18749;BME280;9503;53.560;10.246;2022-09-19T05:43:41;100640.13;;;10.87;100.00
18749;BME280;9503;53.560;10.246;2022-09-19T05:46:08;100649.78;;;10.92;100.00
18749;BME280;9503;53.560;10.246;2022-09-19T05:48:35;100651.28;;;11.06;100.00
18749;BME280;9503;53.560;10.246;2022-09-19T05:51:05;100649.47;;;11.04;100.00
18749;BME280;9503;53.560;10.246;2022-09-19T05:53:31;100651.63;;;11.14;100.00
18749;BME280;9503;53.560;10.246;2022-09-19T05:56:15;100650.81;;;11.34;100.00
18749;BME280;9503;53.560;10.246;2022-09-19T05:58:42;100652.22;;;11.47;100.00
18749;BME280;9503;53.560;10.246;2022-09-19T06:01:10;100657.47;;;11.50;100.00
18749;BME280;9503;53.560;10.246;2022-09-19T06:03:38;100660.66;;;11.64;100.00
18749;BME280;9503;53.560;10.246;2022-09-19T06:06:08;100663.81;;;11.58;100.00
18749;BME280;9503;53.560;10.246;2022-09-19T06:08:37;100664.69;;;11.78;100.00
18749;BME280;9503;53.560;10.246;2022-09-19T06:11:04;100668.06;;;11.77;100.00
18749;BME280;9503;53.560;10.246;2022-09-19T06:13:32;100674.50;;;11.87;100.00
18749;BME280;9503;53.560;10.246;2022-09-19T06:16:12;100669.00;;;11.99;100.00
18749;BME280;9503;53.560;10.246;2022-09-19T06:18:39;100673.75;;;12.10;100.00
18749;BME280;9503;53.560;10.246;2022-09-19T06:21:07;100672.94;;;12.55;100.00
18749;BME280;9503;53.560;10.246;2022-09-19T06:23:34;100683.44;;;12.82;100.00
18749;BME280;9503;53.560;10.246;2022-09-19T06:26:01;100676.88;;;12.67;100.00
18749;BME280;9503;53.560;10.246;2022-09-19T06:28:28;100687.31;;;12.93;100.00
18749;BME280;9503;53.560;10.246;2022-09-19T06:30:59;100677.59;;;12.86;100.00
18749;BME280;9503;53.560;10.246;2022-09-19T06:33:27;100686.88;;;13.27;100.00
18749;BME280;9503;53.560;10.246;2022-09-19T06:35:55;100689.31;;;13.72;100.00
18749;BME280;9503;53.560;10.246;2022-09-19T06:38:26;100689.66;;;14.06;100.00
18749;BME280;9503;53.560;10.246;2022-09-19T06:40:53;100690.63;;;14.10;100.00
18749;BME280;9503;53.560;10.246;2022-09-19T06:43:21;100693.94;;;14.06;100.00
18749;BME280;9503;53.560;10.246;2022-09-19T06:45:48;100704.50;;;14.14;99.57
18749;BME280;9503;53.560;10.246;2022-09-19T06:48:17;100695.63;;;15.43;99.48
18749;BME280;9503;53.560;10.246;2022-09-19T06:50:44;100706.75;;;15.12;92.01
18749;BME280;9503;53.560;10.246;2022-09-19T06:53:13;100702.78;;;14.40;92.71
18749;BME280;9503;53.560;10.246;2022-09-19T06:55:42;100702.50;;;14.05;94.74
18749;BME280;9503;53.560;10.246;2022-09-19T06:58:10;100704.91;;;14.00;94.65
18749;BME280;9503;53.560;10.246;2022-09-19T07:00:38;100714.19;;;13.46;96.49
18749;BME280;9503;53.560;10.246;2022-09-19T07:03:08;100707.16;;;13.66;97.90
18749;BME280;9503;53.560;10.246;2022-09-19T07:05:36;100712.47;;;13.70;98.63
18749;BME280;9503;53.560;10.246;2022-09-19T07:08:04;100717.09;;;14.04;97.29
18749;BME280;9503;53.560;10.246;2022-09-19T07:10:32;100720.44;;;13.76;97.92
18749;BME280;9503;53.560;10.246;2022-09-19T07:13:04;100715.75;;;13.90;97.31
18749;BME280;9503;53.560;10.246;2022-09-19T07:15:32;100723.75;;;13.98;98.27
18749;BME280;9503;53.560;10.246;2022-09-19T07:17:59;100722.88;;;13.97;97.96
18749;BME280;9503;53.560;10.246;2022-09-19T07:20:27;100718.09;;;14.09;98.09
18749;BME280;9503;53.560;10.246;2022-09-19T07:22:58;100717.09;;;14.04;97.95
18749;BME280;9503;53.560;10.246;2022-09-19T07:25:26;100724.84;;;14.04;99.07
18749;BME280;9503;53.560;10.246;2022-09-19T07:27:57;100722.34;;;14.07;98.98
18749;BME280;9503;53.560;10.246;2022-09-19T07:30:25;100725.66;;;14.03;99.60
18749;BME280;9503;53.560;10.246;2022-09-19T07:32:54;100735.28;;;14.34;98.93
18749;BME280;9503;53.560;10.246;2022-09-19T07:35:20;100732.50;;;14.54;98.22
18749;BME280;9503;53.560;10.246;2022-09-19T07:37:50;100732.06;;;14.67;97.10
18749;BME280;9503;53.560;10.246;2022-09-19T07:40:16;100738.56;;;14.54;97.07
18749;BME280;9503;53.560;10.246;2022-09-19T07:42:43;100745.28;;;14.76;97.62
18749;BME280;9503;53.560;10.246;2022-09-19T07:45:10;100742.34;;;14.92;96.93
18749;BME280;9503;53.560;10.246;2022-09-19T07:47:42;100742.59;;;14.73;96.53
18749;BME280;9503;53.560;10.246;2022-09-19T07:50:09;100747.06;;;14.79;96.86
18749;BME280;9503;53.560;10.246;2022-09-19T07:52:37;100750.44;;;15.05;96.43
18749;BME280;9503;53.560;10.246;2022-09-19T07:55:05;100756.06;;;15.20;94.83
18749;BME280;9503;53.560;10.246;2022-09-19T07:57:32;100752.44;;;15.13;94.52
18749;BME280;9503;53.560;10.246;2022-09-19T07:59:58;100756.47;;;15.05;95.78
18749;BME280;9503;53.560;10.246;2022-09-19T08:02:25;100747.34;;;15.16;96.26
18749;BME280;9503;53.560;10.246;2022-09-19T08:04:53;100747.00;;;15.34;96.00
18749;BME280;9503;53.560;10.246;2022-09-19T08:07:20;100752.25;;;15.36;95.26
18749;BME280;9503;53.560;10.246;2022-09-19T08:09:46;100757.75;;;15.48;95.45
18749;BME280;9503;53.560;10.246;2022-09-19T08:12:13;100750.09;;;15.51;95.34
18749;BME280;9503;53.560;10.246;2022-09-19T08:14:41;100751.28;;;15.62;94.78
18749;BME280;9503;53.560;10.246;2022-09-19T08:17:08;100752.16;;;15.63;94.47
18749;BME280;9503;53.560;10.246;2022-09-19T08:19:35;100753.75;;;15.58;93.93
18749;BME280;9503;53.560;10.246;2022-09-19T08:22:03;100757.06;;;15.84;93.17
18749;BME280;9503;53.560;10.246;2022-09-19T08:24:29;100759.19;;;15.98;92.44
18749;BME280;9503;53.560;10.246;2022-09-19T08:26:56;100758.66;;;16.12;92.31
18749;BME280;9503;53.560;10.246;2022-09-19T08:29:24;100760.63;;;16.20;93.33
18749;BME280;9503;53.560;10.246;2022-09-19T08:31:51;100762.94;;;16.10;91.00
18749;BME280;9503;53.560;10.246;2022-09-19T08:34:18;100767.28;;;16.11;90.98
18749;BME280;9503;53.560;10.246;2022-09-19T08:36:44;100761.81;;;16.00;89.55
18749;BME280;9503;53.560;10.246;2022-09-19T08:39:12;100773.66;;;16.23;89.23
18749;BME280;9503;53.560;10.246;2022-09-19T08:41:47;100772.06;;;16.30;87.00
18749;BME280;9503;53.560;10.246;2022-09-19T08:44:23;100774.22;;;16.13;87.47
18749;BME280;9503;53.560;10.246;2022-09-19T08:46:58;100770.78;;;16.47;86.00
18749;BME280;9503;53.560;10.246;2022-09-19T08:49:30;100768.25;;;16.83;85.52
18749;BME280;9503;53.560;10.246;2022-09-19T08:52:01;100778.47;;;17.15;85.29
18749;BME280;9503;53.560;10.246;2022-09-19T08:54:31;100779.97;;;17.45;83.21
18749;BME280;9503;53.560;10.246;2022-09-19T08:57:02;100777.84;;;17.67;80.90
18749;BME280;9503;53.560;10.246;2022-09-19T08:59:32;100786.63;;;17.73;79.58
18749;BME280;9503;53.560;10.246;2022-09-19T09:02:07;100778.47;;;17.98;79.13
18749;BME280;9503;53.560;10.246;2022-09-19T09:04:35;100780.44;;;18.11;78.83
18749;BME280;9503;53.560;10.246;2022-09-19T09:07:09;100782.91;;;18.04;80.40
18749;BME280;9503;53.560;10.246;2022-09-19T09:09:55;100786.13;;;17.92;79.48
18749;BME280;9503;53.560;10.246;2022-09-19T09:12:29;100785.38;;;17.99;79.03
18749;BME280;9503;53.560;10.246;2022-09-19T09:15:06;100783.53;;;18.39;78.58
18749;BME280;9503;53.560;10.246;2022-09-19T09:17:43;100778.13;;;18.27;78.10
18749;BME280;9503;53.560;10.246;2022-09-19T09:20:41;100786.38;;;18.54;76.90
18749;BME280;9503;53.560;10.246;2022-09-19T09:23:14;100784.91;;;18.67;76.83
18749;BME280;9503;53.560;10.246;2022-09-19T09:25:46;100790.59;;;19.00;76.34
18749;BME280;9503;53.560;10.246;2022-09-19T09:28:15;100794.47;;;19.28;75.97
18749;BME280;9503;53.560;10.246;2022-09-19T09:30:46;100791.28;;;19.48;73.58
18749;BME280;9503;53.560;10.246;2022-09-19T09:33:16;100790.00;;;19.83;72.91
18749;BME280;9503;53.560;10.246;2022-09-19T09:35:48;100793.50;;;19.88;70.33
18749;BME280;9503;53.560;10.246;2022-09-19T09:38:25;100792.44;;;20.52;70.29
18749;BME280;9503;53.560;10.246;2022-09-19T09:41:00;100793.34;;;20.55;68.43
18749;BME280;9503;53.560;10.246;2022-09-19T09:43:55;100792.56;;;20.65;67.69
18749;BME280;9503;53.560;10.246;2022-09-19T09:46:36;100796.00;;;19.78;69.39
18749;BME280;9503;53.560;10.246;2022-09-19T09:49:10;100787.44;;;19.88;69.59
18749;BME280;9503;53.560;10.246;2022-09-19T09:51:43;100792.06;;;20.15;67.68
18749;BME280;9503;53.560;10.246;2022-09-19T09:54:27;100798.09;;;20.11;68.70
18749;BME280;9503;53.560;10.246;2022-09-19T09:57:29;100790.13;;;19.96;69.03
18749;BME280;9503;53.560;10.246;2022-09-19T10:00:00;100787.97;;;20.41;67.91
18749;BME280;9503;53.560;10.246;2022-09-19T10:02:50;100789.41;;;20.09;65.51
18749;BME280;9503;53.560;10.246;2022-09-19T10:05:46;100792.47;;;19.74;67.52
18749;BME280;9503;53.560;10.246;2022-09-19T10:08:18;100790.91;;;19.85;67.30
18749;BME280;9503;53.560;10.246;2022-09-19T10:10:48;100783.22;;;19.98;67.29
18749;BME280;9503;53.560;10.246;2022-09-19T10:13:23;100792.22;;;20.30;66.88
18749;BME280;9503;53.560;10.246;2022-09-19T10:15:57;100785.22;;;20.23;66.91
18749;BME280;9503;53.560;10.246;2022-09-19T10:18:33;100792.25;;;20.33;68.20
18749;BME280;9503;53.560;10.246;2022-09-19T10:21:02;100796.44;;;20.19;67.35
18749;BME280;9503;53.560;10.246;2022-09-19T10:23:31;100801.69;;;20.24;66.49
18749;BME280;9503;53.560;10.246;2022-09-19T10:26:00;100793.69;;;20.04;64.94
18749;BME280;9503;53.560;10.246;2022-09-19T10:28:33;100798.63;;;19.79;65.07
18749;BME280;9503;53.560;10.246;2022-09-19T10:31:02;100787.56;;;19.99;65.33
18749;BME280;9503;53.560;10.246;2022-09-19T10:33:35;100793.19;;;20.41;65.45
18749;BME280;9503;53.560;10.246;2022-09-19T10:36:07;100784.75;;;20.67;66.44
18749;BME280;9503;53.560;10.246;2022-09-19T10:38:50;100790.72;;;20.51;66.00
18749;BME280;9503;53.560;10.246;2022-09-19T10:41:20;100783.22;;;20.96;64.97
18749;BME280;9503;53.560;10.246;2022-09-19T10:43:51;100789.50;;;21.23;63.68
18749;BME280;9503;53.560;10.246;2022-09-19T10:46:20;100783.88;;;20.66;63.04
18749;BME280;9503;53.560;10.246;2022-09-19T10:48:53;100788.13;;;20.54;63.29
18749;BME280;9503;53.560;10.246;2022-09-19T10:51:26;100782.41;;;20.03;62.19
18749;BME280;9503;53.560;10.246;2022-09-19T10:53:55;100778.50;;;20.47;62.97
18749;BME280;9503;53.560;10.246;2022-09-19T10:56:25;100773.47;;;20.65;61.50
18749;BME280;9503;53.560;10.246;2022-09-19T10:59:00;100776.19;;;20.82;60.57
18749;BME280;9503;53.560;10.246;2022-09-19T11:01:28;100779.56;;;20.68;62.13
18749;BME280;9503;53.560;10.246;2022-09-19T11:04:00;100777.63;;;20.46;62.30
18749;BME280;9503;53.560;10.246;2022-09-19T11:06:28;100771.47;;;20.41;62.93
18749;BME280;9503;53.560;10.246;2022-09-19T11:08:55;100781.44;;;20.92;60.83
18749;BME280;9503;53.560;10.246;2022-09-19T11:11:29;100775.59;;;21.25;60.76
18749;BME280;9503;53.560;10.246;2022-09-19T11:14:12;100778.41;;;21.71;59.63
18749;BME280;9503;53.560;10.246;2022-09-19T11:19:43;100782.09;;;22.88;56.02
18749;BME280;9503;53.560;10.246;2022-09-19T11:22:24;100774.22;;;22.73;55.74
18749;BME280;9503;53.560;10.246;2022-09-19T11:25:02;100768.91;;;22.02;58.19
18749;BME280;9503;53.560;10.246;2022-09-19T11:27:54;100771.53;;;21.93;55.87
18749;BME280;9503;53.560;10.246;2022-09-19T11:30:27;100774.81;;;21.37;57.87
18749;BME280;9503;53.560;10.246;2022-09-19T11:33:20;100768.78;;;21.58;57.96
18749;BME280;9503;53.560;10.246;2022-09-19T11:35:57;100765.38;;;21.73;56.65
18749;BME280;9503;53.560;10.246;2022-09-19T11:38:34;100758.53;;;22.13;56.26
18749;BME280;9503;53.560;10.246;2022-09-19T11:41:21;100758.56;;;22.51;56.17
18749;BME280;9503;53.560;10.246;2022-09-19T11:44:04;100755.84;;;23.19;55.22
18749;BME280;9503;53.560;10.246;2022-09-19T11:46:39;100762.88;;;22.75;58.70
18749;BME280;9503;53.560;10.246;2022-09-19T11:49:39;100768.06;;;22.02;61.78
18749;BME280;9503;53.560;10.246;2022-09-19T11:52:23;100771.84;;;20.82;67.16
18749;BME280;9503;53.560;10.246;2022-09-19T11:55:16;100768.06;;;19.62;71.08
18749;BME280;9503;53.560;10.246;2022-09-19T11:57:48;100768.44;;;18.66;72.99
18749;BME280;9503;53.560;10.246;2022-09-19T12:00:21;100765.13;;;18.25;74.35
18749;BME280;9503;53.560;10.246;2022-09-19T12:03:27;100764.47;;;18.37;76.53
18749;BME280;9503;53.560;10.246;2022-09-19T12:06:06;100766.09;;;18.82;77.95
18749;BME280;9503;53.560;10.246;2022-09-19T12:08:44;100761.53;;;19.26;77.96
18749;BME280;9503;53.560;10.246;2022-09-19T12:11:15;100759.44;;;19.64;75.15
18749;BME280;9503;53.560;10.246;2022-09-19T12:13:48;100760.38;;;19.71;70.56
18749;BME280;9503;53.560;10.246;2022-09-19T12:16:22;100753.53;;;19.80;70.98
18749;BME280;9503;53.560;10.246;2022-09-19T12:18:54;100757.88;;;19.83;73.08
18749;BME280;9503;53.560;10.246;2022-09-19T12:21:29;100757.84;;;19.78;73.36
18749;BME280;9503;53.560;10.246;2022-09-19T12:24:01;100767.22;;;19.61;68.41
18749;BME280;9503;53.560;10.246;2022-09-19T12:26:52;100773.53;;;19.18;66.53
18749;BME280;9503;53.560;10.246;2022-09-19T12:29:25;100783.31;;;18.75;68.93
18749;BME280;9503;53.560;10.246;2022-09-19T12:32:02;100784.63;;;18.53;66.77
18749;BME280;9503;53.560;10.246;2022-09-19T12:34:38;100786.63;;;17.73;66.59
18749;BME280;9503;53.560;10.246;2022-09-19T12:37:14;100803.94;;;16.62;72.51
18749;BME280;9503;53.560;10.246;2022-09-19T12:39:47;100807.84;;;16.13;76.93
18749;BME280;9503;53.560;10.246;2022-09-19T12:42:21;100809.53;;;15.51;80.59
18749;BME280;9503;53.560;10.246;2022-09-19T12:45:01;100803.34;;;15.46;82.86
18749;BME280;9503;53.560;10.246;2022-09-19T12:47:40;100795.50;;;15.43;81.98
18749;BME280;9503;53.560;10.246;2022-09-19T12:50:20;100792.00;;;15.41;82.53
18749;BME280;9503;53.560;10.246;2022-09-19T12:52:56;100794.03;;;15.23;83.78
18749;BME280;9503;53.560;10.246;2022-09-19T12:55:29;100790.41;;;15.46;83.34
18749;BME280;9503;53.560;10.246;2022-09-19T12:58:04;100790.72;;;15.57;82.54
18749;BME280;9503;53.560;10.246;2022-09-19T13:00:35;100791.34;;;15.77;82.45
18749;BME280;9503;53.560;10.246;2022-09-19T13:03:13;100788.53;;;16.00;82.06
18749;BME280;9503;53.560;10.246;2022-09-19T13:05:44;100779.06;;;15.69;81.82
18749;BME280;9503;53.560;10.246;2022-09-19T13:08:14;100785.00;;;15.97;81.79
18749;BME280;9503;53.560;10.246;2022-09-19T13:10:46;100786.13;;;16.07;81.85
18749;BME280;9503;53.560;10.246;2022-09-19T13:13:19;100788.38;;;16.26;81.88
18749;BME280;9503;53.560;10.246;2022-09-19T13:15:50;100788.75;;;16.41;82.05